sensor_id;sensor_type;location;lat;lon;timestamp;P1;durP1;ratioP1;P2;durP2;ratioP2
30818;SDS011;17546;42.674;23.284;2022-09-16T00:02:09;11.35;;;2.88;;
30818;SDS011;17546;42.674;23.284;2022-09-16T00:04:34;16.88;;;2.40;;
30818;SDS011;17546;42.674;23.284;2022-09-16T00:07:00;10.82;;;2.80;;
30818;SDS011;17546;42.674;23.284;2022-09-16T00:09:25;6.35;;;2.72;;
30818;SDS011;17546;42.674;23.284;2022-09-16T00:11:51;15.32;;;3.72;;
30818;SDS011;17546;42.674;23.284;2022-09-16T00:14:16;17.17;;;3.53;;
30818;SDS011;17546;42.674;23.284;2022-09-16T00:16:42;12.32;;;2.88;;
30818;SDS011;17546;42.674;23.284;2022-09-16T00:19:07;12.43;;;2.97;;
30818;SDS011;17546;42.674;23.284;2022-09-16T00:21:32;13.07;;;3.00;;
30818;SDS011;17546;42.674;23.284;2022-09-16T00:23:58;7.25;;;2.78;;
30818;SDS011;17546;42.674;23.284;2022-09-16T00:26:24;15.05;;;3.00;;
30818;SDS011;17546;42.674;23.284;2022-09-16T00:28:51;10.15;;;2.70;;
30818;SDS011;17546;42.674;23.284;2022-09-16T00:31:17;13.52;;;2.75;;
30818;SDS011;17546;42.674;23.284;2022-09-16T00:33:42;10.02;;;3.00;;
30818;SDS011;17546;42.674;23.284;2022-09-16T00:36:12;10.73;;;2.60;;
30818;SDS011;17546;42.674;23.284;2022-09-16T00:38:40;10.43;;;2.70;;
30818;SDS011;17546;42.674;23.284;2022-09-16T00:41:08;9.60;;;2.75;;
30818;SDS011;17546;42.674;23.284;2022-09-16T00:43:46;8.35;;;2.78;;
30818;SDS011;17546;42.674;23.284;2022-09-16T00:46:13;12.57;;;3.08;;
30818;SDS011;17546;42.674;23.284;2022-09-16T00:48:41;9.75;;;2.47;;
30818;SDS011;17546;42.674;23.284;2022-09-16T00:51:08;13.35;;;2.97;;
30818;SDS011;17546;42.674;23.284;2022-09-16T00:53:41;9.82;;;2.63;;
30818;SDS011;17546;42.674;23.284;2022-09-16T00:56:16;7.00;;;2.55;;
30818;SDS011;17546;42.674;23.284;2022-09-16T00:59:17;10.20;;;2.50;;
30818;SDS011;17546;42.674;23.284;2022-09-16T01:01:45;8.10;;;2.75;;
30818;SDS011;17546;42.674;23.284;2022-09-16T01:04:22;8.35;;;2.65;;
30818;SDS011;17546;42.674;23.284;2022-09-16T01:06:50;12.20;;;2.70;;
30818;SDS011;17546;42.674;23.284;2022-09-16T01:09:17;6.85;;;2.55;;
30818;SDS011;17546;42.674;23.284;2022-09-16T01:11:46;10.98;;;2.72;;
30818;SDS011;17546;42.674;23.284;2022-09-16T01:14:11;14.48;;;2.80;;
30818;SDS011;17546;42.674;23.284;2022-09-16T01:17:42;10.45;;;2.15;;
30818;SDS011;17546;42.674;23.284;2022-09-16T01:30:05;5.63;;;2.38;;
30818;SDS011;17546;42.674;23.284;2022-09-16T01:33:03;12.93;;;2.92;;
30818;SDS011;17546;42.674;23.284;2022-09-16T01:40:57;11.23;;;2.40;;
30818;SDS011;17546;42.674;23.284;2022-09-16T01:43:49;10.82;;;2.97;;
30818;SDS011;17546;42.674;23.284;2022-09-16T01:47:05;8.55;;;2.45;;
30818;SDS011;17546;42.674;23.284;2022-09-16T01:55:04;11.65;;;2.67;;
30818;SDS011;17546;42.674;23.284;2022-09-16T02:00:42;9.77;;;2.50;;
30818;SDS011;17546;42.674;23.284;2022-09-16T02:03:11;7.45;;;2.53;;
30818;SDS011;17546;42.674;23.284;2022-09-16T02:05:58;15.98;;;2.80;;
30818;SDS011;17546;42.674;23.284;2022-09-16T02:08:42;6.63;;;2.10;;
30818;SDS011;17546;42.674;23.284;2022-09-16T02:11:14;8.40;;;2.30;;
30818;SDS011;17546;42.674;23.284;2022-09-16T02:13:53;14.52;;;2.30;;
30818;SDS011;17546;42.674;23.284;2022-09-16T02:16:34;12.07;;;2.30;;
30818;SDS011;17546;42.674;23.284;2022-09-16T02:19:05;12.57;;;2.95;;
30818;SDS011;17546;42.674;23.284;2022-09-16T02:21:36;8.40;;;2.35;;
30818;SDS011;17546;42.674;23.284;2022-09-16T02:24:07;8.43;;;2.58;;
30818;SDS011;17546;42.674;23.284;2022-09-16T02:26:43;5.82;;;2.00;;
30818;SDS011;17546;42.674;23.284;2022-09-16T02:29:20;16.48;;;2.20;;
30818;SDS011;17546;42.674;23.284;2022-09-16T02:31:50;9.50;;;2.30;;
30818;SDS011;17546;42.674;23.284;2022-09-16T02:34:21;6.55;;;2.25;;
30818;SDS011;17546;42.674;23.284;2022-09-16T02:36:53;13.38;;;2.53;;
30818;SDS011;17546;42.674;23.284;2022-09-16T02:39:23;7.25;;;2.40;;
30818;SDS011;17546;42.674;23.284;2022-09-16T02:41:54;8.65;;;2.08;;
30818;SDS011;17546;42.674;23.284;2022-09-16T02:44:21;7.80;;;2.20;;
30818;SDS011;17546;42.674;23.284;2022-09-16T02:52:02;13.63;;;2.58;;
30818;SDS011;17546;42.674;23.284;2022-09-16T02:57:05;5.47;;;1.90;;
30818;SDS011;17546;42.674;23.284;2022-09-16T02:59:38;9.63;;;2.28;;
30818;SDS011;17546;42.674;23.284;2022-09-16T03:02:04;14.15;;;2.40;;
30818;SDS011;17546;42.674;23.284;2022-09-16T03:04:29;7.78;;;2.20;;
30818;SDS011;17546;42.674;23.284;2022-09-16T03:06:55;11.43;;;2.22;;
30818;SDS011;17546;42.674;23.284;2022-09-16T03:09:21;12.43;;;2.25;;
30818;SDS011;17546;42.674;23.284;2022-09-16T03:28:15;8.82;;;2.50;;
30818;SDS011;17546;42.674;23.284;2022-09-16T03:35:58;5.57;;;2.70;;
30818;SDS011;17546;42.674;23.284;2022-09-16T03:38:29;9.70;;;2.50;;
30818;SDS011;17546;42.674;23.284;2022-09-16T03:40:58;19.25;;;3.20;;
30818;SDS011;17546;42.674;23.284;2022-09-16T03:43:25;16.95;;;2.53;;
30818;SDS011;17546;42.674;23.284;2022-09-16T03:45:51;11.57;;;2.90;;
30818;SDS011;17546;42.674;23.284;2022-09-16T03:48:16;7.60;;;2.50;;
30818;SDS011;17546;42.674;23.284;2022-09-16T03:50:41;6.95;;;2.10;;
30818;SDS011;17546;42.674;23.284;2022-09-16T03:53:07;8.18;;;2.67;;
30818;SDS011;17546;42.674;23.284;2022-09-16T03:55:32;12.48;;;2.75;;
30818;SDS011;17546;42.674;23.284;2022-09-16T03:57:58;10.05;;;2.30;;
30818;SDS011;17546;42.674;23.284;2022-09-16T04:00:23;7.80;;;2.92;;
30818;SDS011;17546;42.674;23.284;2022-09-16T04:02:48;14.60;;;3.25;;
30818;SDS011;17546;42.674;23.284;2022-09-16T04:05:14;14.13;;;3.15;;
30818;SDS011;17546;42.674;23.284;2022-09-16T04:07:39;8.18;;;3.10;;
30818;SDS011;17546;42.674;23.284;2022-09-16T04:10:05;12.20;;;3.53;;
30818;SDS011;17546;42.674;23.284;2022-09-16T04:12:36;7.97;;;2.88;;
30818;SDS011;17546;42.674;23.284;2022-09-16T04:15:02;14.55;;;3.67;;
30818;SDS011;17546;42.674;23.284;2022-09-16T04:17:30;11.13;;;3.30;;
30818;SDS011;17546;42.674;23.284;2022-09-16T04:19:56;9.45;;;3.13;;
30818;SDS011;17546;42.674;23.284;2022-09-16T04:22:21;11.10;;;2.70;;
30818;SDS011;17546;42.674;23.284;2022-09-16T04:24:46;16.35;;;3.10;;
30818;SDS011;17546;42.674;23.284;2022-09-16T04:27:12;11.77;;;3.22;;
30818;SDS011;17546;42.674;23.284;2022-09-16T04:29:37;12.35;;;3.00;;
30818;SDS011;17546;42.674;23.284;2022-09-16T04:32:03;18.90;;;3.40;;
30818;SDS011;17546;42.674;23.284;2022-09-16T04:34:28;15.25;;;3.40;;
30818;SDS011;17546;42.674;23.284;2022-09-16T04:36:56;12.60;;;3.00;;
30818;SDS011;17546;42.674;23.284;2022-09-16T04:39:22;16.90;;;3.05;;
30818;SDS011;17546;42.674;23.284;2022-09-16T04:41:47;15.90;;;3.08;;
30818;SDS011;17546;42.674;23.284;2022-09-16T04:44:13;10.90;;;3.30;;
30818;SDS011;17546;42.674;23.284;2022-09-16T04:46:39;15.95;;;4.32;;
30818;SDS011;17546;42.674;23.284;2022-09-16T04:49:04;18.38;;;3.67;;
30818;SDS011;17546;42.674;23.284;2022-09-16T04:51:31;12.65;;;3.30;;
30818;SDS011;17546;42.674;23.284;2022-09-16T04:53:57;17.95;;;4.00;;
30818;SDS011;17546;42.674;23.284;2022-09-16T04:56:24;18.80;;;4.70;;
30818;SDS011;17546;42.674;23.284;2022-09-16T04:58:57;14.48;;;3.78;;
30818;SDS011;17546;42.674;23.284;2022-09-16T05:01:32;24.10;;;4.50;;
30818;SDS011;17546;42.674;23.284;2022-09-16T05:04:00;15.70;;;4.03;;
30818;SDS011;17546;42.674;23.284;2022-09-16T05:06:28;21.10;;;3.75;;
30818;SDS011;17546;42.674;23.284;2022-09-16T05:08:56;11.65;;;3.65;;
30818;SDS011;17546;42.674;23.284;2022-09-16T05:11:33;19.40;;;3.75;;
30818;SDS011;17546;42.674;23.284;2022-09-16T05:14:01;11.55;;;3.85;;
30818;SDS011;17546;42.674;23.284;2022-09-16T05:16:28;13.98;;;3.60;;
30818;SDS011;17546;42.674;23.284;2022-09-16T05:18:55;13.50;;;3.85;;
30818;SDS011;17546;42.674;23.284;2022-09-16T05:21:22;12.85;;;3.83;;
30818;SDS011;17546;42.674;23.284;2022-09-16T05:23:50;17.75;;;4.35;;
30818;SDS011;17546;42.674;23.284;2022-09-16T05:26:20;13.75;;;4.03;;
30818;SDS011;17546;42.674;23.284;2022-09-16T05:28:47;20.85;;;4.35;;
30818;SDS011;17546;42.674;23.284;2022-09-16T05:31:23;20.98;;;4.03;;
30818;SDS011;17546;42.674;23.284;2022-09-16T05:36:24;15.80;;;4.82;;
30818;SDS011;17546;42.674;23.284;2022-09-16T05:38:50;13.80;;;4.68;;
30818;SDS011;17546;42.674;23.284;2022-09-16T05:41:16;17.35;;;4.57;;
30818;SDS011;17546;42.674;23.284;2022-09-16T05:43:41;20.98;;;4.50;;
30818;SDS011;17546;42.674;23.284;2022-09-16T05:46:08;19.70;;;4.60;;
30818;SDS011;17546;42.674;23.284;2022-09-16T05:48:40;24.42;;;4.43;;
30818;SDS011;17546;42.674;23.284;2022-09-16T05:51:05;23.85;;;4.63;;
30818;SDS011;17546;42.674;23.284;2022-09-16T05:53:32;21.83;;;5.55;;
30818;SDS011;17546;42.674;23.284;2022-09-16T05:56:03;21.70;;;4.35;;
30818;SDS011;17546;42.674;23.284;2022-09-16T05:58:30;21.58;;;4.43;;
30818;SDS011;17546;42.674;23.284;2022-09-16T06:00:58;19.02;;;4.45;;
30818;SDS011;17546;42.674;23.284;2022-09-16T06:03:30;20.10;;;4.35;;
30818;SDS011;17546;42.674;23.284;2022-09-16T06:06:03;14.43;;;3.92;;
30818;SDS011;17546;42.674;23.284;2022-09-16T06:08:47;20.10;;;3.60;;
30818;SDS011;17546;42.674;23.284;2022-09-16T06:11:13;10.70;;;3.40;;
30818;SDS011;17546;42.674;23.284;2022-09-16T06:13:39;12.00;;;3.65;;
30818;SDS011;17546;42.674;23.284;2022-09-16T06:16:06;15.70;;;3.15;;
30818;SDS011;17546;42.674;23.284;2022-09-16T06:18:33;14.35;;;2.63;;
30818;SDS011;17546;42.674;23.284;2022-09-16T06:21:02;11.65;;;2.95;;
30818;SDS011;17546;42.674;23.284;2022-09-16T06:23:30;15.00;;;2.58;;
30818;SDS011;17546;42.674;23.284;2022-09-16T06:26:00;9.63;;;2.42;;
30818;SDS011;17546;42.674;23.284;2022-09-16T06:28:27;8.75;;;2.65;;
30818;SDS011;17546;42.674;23.284;2022-09-16T06:33:49;16.75;;;3.40;;
30818;SDS011;17546;42.674;23.284;2022-09-16T06:36:20;16.65;;;2.47;;
30818;SDS011;17546;42.674;23.284;2022-09-16T06:38:47;10.15;;;2.33;;
30818;SDS011;17546;42.674;23.284;2022-09-16T06:41:13;13.90;;;2.55;;
30818;SDS011;17546;42.674;23.284;2022-09-16T06:43:40;8.88;;;3.25;;
30818;SDS011;17546;42.674;23.284;2022-09-16T06:46:07;8.23;;;2.45;;
30818;SDS011;17546;42.674;23.284;2022-09-16T06:48:37;13.10;;;2.50;;
30818;SDS011;17546;42.674;23.284;2022-09-16T06:51:05;18.20;;;2.70;;
30818;SDS011;17546;42.674;23.284;2022-09-16T06:53:33;9.80;;;2.35;;
30818;SDS011;17546;42.674;23.284;2022-09-16T06:56:02;7.40;;;2.58;;
30818;SDS011;17546;42.674;23.284;2022-09-16T06:58:32;10.63;;;2.80;;
30818;SDS011;17546;42.674;23.284;2022-09-16T07:01:03;9.48;;;2.70;;
30818;SDS011;17546;42.674;23.284;2022-09-16T07:03:40;17.05;;;3.08;;
30818;SDS011;17546;42.674;23.284;2022-09-16T07:06:07;12.63;;;2.83;;
30818;SDS011;17546;42.674;23.284;2022-09-16T07:08:34;8.25;;;2.55;;
30818;SDS011;17546;42.674;23.284;2022-09-16T07:11:11;15.65;;;2.80;;
30818;SDS011;17546;42.674;23.284;2022-09-16T07:13:37;13.27;;;2.75;;
30818;SDS011;17546;42.674;23.284;2022-09-16T07:16:05;9.73;;;2.83;;
30818;SDS011;17546;42.674;23.284;2022-09-16T07:18:32;13.70;;;3.08;;
30818;SDS011;17546;42.674;23.284;2022-09-16T07:21:05;14.18;;;3.05;;
30818;SDS011;17546;42.674;23.284;2022-09-16T07:23:34;9.90;;;2.90;;
30818;SDS011;17546;42.674;23.284;2022-09-16T07:26:03;18.42;;;3.38;;
30818;SDS011;17546;42.674;23.284;2022-09-16T07:28:33;13.25;;;2.95;;
30818;SDS011;17546;42.674;23.284;2022-09-16T07:31:03;15.55;;;2.63;;
30818;SDS011;17546;42.674;23.284;2022-09-16T07:33:37;11.63;;;2.55;;
30818;SDS011;17546;42.674;23.284;2022-09-16T07:36:04;13.35;;;3.45;;
30818;SDS011;17546;42.674;23.284;2022-09-16T07:38:30;10.98;;;3.33;;
30818;SDS011;17546;42.674;23.284;2022-09-16T07:41:06;11.65;;;3.42;;
30818;SDS011;17546;42.674;23.284;2022-09-16T07:43:33;10.88;;;4.22;;
30818;SDS011;17546;42.674;23.284;2022-09-16T07:45:59;18.25;;;4.32;;
30818;SDS011;17546;42.674;23.284;2022-09-16T07:48:25;15.55;;;3.05;;
30818;SDS011;17546;42.674;23.284;2022-09-16T07:51:00;21.67;;;3.08;;
30818;SDS011;17546;42.674;23.284;2022-09-16T07:53:28;17.17;;;3.08;;
30818;SDS011;17546;42.674;23.284;2022-09-16T07:56:04;11.02;;;3.30;;
30818;SDS011;17546;42.674;23.284;2022-09-16T07:58:30;10.98;;;3.75;;
30818;SDS011;17546;42.674;23.284;2022-09-16T08:00:56;16.38;;;3.33;;
30818;SDS011;17546;42.674;23.284;2022-09-16T08:03:22;15.10;;;3.40;;
30818;SDS011;17546;42.674;23.284;2022-09-16T08:05:47;18.42;;;3.67;;
30818;SDS011;17546;42.674;23.284;2022-09-16T08:08:13;17.02;;;4.00;;
30818;SDS011;17546;42.674;23.284;2022-09-16T08:10:38;18.70;;;3.97;;
30818;SDS011;17546;42.674;23.284;2022-09-16T08:13:04;20.95;;;6.38;;
30818;SDS011;17546;42.674;23.284;2022-09-16T08:15:31;11.27;;;3.60;;
30818;SDS011;17546;42.674;23.284;2022-09-16T08:17:57;19.33;;;4.05;;
30818;SDS011;17546;42.674;23.284;2022-09-16T08:20:22;18.50;;;3.72;;
30818;SDS011;17546;42.674;23.284;2022-09-16T08:22:52;12.43;;;3.00;;
30818;SDS011;17546;42.674;23.284;2022-09-16T08:25:17;16.70;;;3.00;;
30818;SDS011;17546;42.674;23.284;2022-09-16T08:27:43;15.23;;;3.33;;
30818;SDS011;17546;42.674;23.284;2022-09-16T08:30:09;16.25;;;3.00;;
30818;SDS011;17546;42.674;23.284;2022-09-16T08:32:34;9.52;;;2.92;;
30818;SDS011;17546;42.674;23.284;2022-09-16T08:35:00;14.60;;;3.28;;
30818;SDS011;17546;42.674;23.284;2022-09-16T08:37:26;13.57;;;3.33;;
30818;SDS011;17546;42.674;23.284;2022-09-16T08:39:51;9.63;;;2.50;;
30818;SDS011;17546;42.674;23.284;2022-09-16T08:44:58;13.13;;;2.90;;
30818;SDS011;17546;42.674;23.284;2022-09-16T08:50:24;12.45;;;3.10;;
30818;SDS011;17546;42.674;23.284;2022-09-16T08:53:23;11.05;;;3.15;;
30818;SDS011;17546;42.674;23.284;2022-09-16T08:55:56;13.80;;;3.60;;
30818;SDS011;17546;42.674;23.284;2022-09-16T08:58:25;14.60;;;2.80;;
30818;SDS011;17546;42.674;23.284;2022-09-16T09:01:01;12.20;;;2.97;;
30818;SDS011;17546;42.674;23.284;2022-09-16T09:03:39;13.43;;;2.80;;
30818;SDS011;17546;42.674;23.284;2022-09-16T09:28:17;21.50;;;4.18;;
30818;SDS011;17546;42.674;23.284;2022-09-16T09:31:34;19.25;;;3.83;;
30818;SDS011;17546;42.674;23.284;2022-09-16T09:33:57;14.52;;;3.63;;
30818;SDS011;17546;42.674;23.284;2022-09-16T09:39:41;27.92;;;4.65;;
30818;SDS011;17546;42.674;23.284;2022-09-16T09:42:40;13.93;;;3.85;;
30818;SDS011;17546;42.674;23.284;2022-09-16T09:50:14;19.40;;;3.67;;
30818;SDS011;17546;42.674;23.284;2022-09-16T09:52:54;12.98;;;2.85;;
30818;SDS011;17546;42.674;23.284;2022-09-16T09:55:23;20.20;;;3.25;;
30818;SDS011;17546;42.674;23.284;2022-09-16T10:00:23;19.40;;;3.38;;
30818;SDS011;17546;42.674;23.284;2022-09-16T10:02:48;16.67;;;2.88;;
30818;SDS011;17546;42.674;23.284;2022-09-16T10:07:50;15.57;;;3.05;;
30818;SDS011;17546;42.674;23.284;2022-09-16T10:10:23;10.35;;;3.17;;
30818;SDS011;17546;42.674;23.284;2022-09-16T10:12:51;19.25;;;3.47;;
30818;SDS011;17546;42.674;23.284;2022-09-16T10:15:21;12.15;;;3.10;;
30818;SDS011;17546;42.674;23.284;2022-09-16T10:17:58;16.70;;;3.20;;
30818;SDS011;17546;42.674;23.284;2022-09-16T10:23:08;17.10;;;3.20;;
30818;SDS011;17546;42.674;23.284;2022-09-16T10:25:35;15.25;;;3.05;;
30818;SDS011;17546;42.674;23.284;2022-09-16T10:28:02;13.52;;;2.85;;
30818;SDS011;17546;42.674;23.284;2022-09-16T10:30:30;17.05;;;3.00;;
30818;SDS011;17546;42.674;23.284;2022-09-16T10:33:28;9.10;;;1.92;;
30818;SDS011;17546;42.674;23.284;2022-09-16T10:36:17;7.70;;;2.38;;
30818;SDS011;17546;42.674;23.284;2022-09-16T10:38:51;10.10;;;2.00;;
30818;SDS011;17546;42.674;23.284;2022-09-16T10:43:53;6.57;;;1.90;;
30818;SDS011;17546;42.674;23.284;2022-09-16T10:49:27;7.22;;;1.70;;
30818;SDS011;17546;42.674;23.284;2022-09-16T10:52:16;11.90;;;2.17;;
30818;SDS011;17546;42.674;23.284;2022-09-16T10:54:46;5.63;;;1.40;;
30818;SDS011;17546;42.674;23.284;2022-09-16T11:13:56;5.47;;;2.00;;
30818;SDS011;17546;42.674;23.284;2022-09-16T11:19:13;6.72;;;1.60;;
30818;SDS011;17546;42.674;23.284;2022-09-16T11:46:03;5.20;;;1.27;;
30818;SDS011;17546;42.674;23.284;2022-09-16T11:56:57;5.90;;;1.52;;
30818;SDS011;17546;42.674;23.284;2022-09-16T11:59:47;3.20;;;1.17;;
30818;SDS011;17546;42.674;23.284;2022-09-16T12:02:28;3.13;;;0.77;;
30818;SDS011;17546;42.674;23.284;2022-09-16T12:05:17;4.20;;;1.33;;
30818;SDS011;17546;42.674;23.284;2022-09-16T12:07:45;5.10;;;1.00;;
30818;SDS011;17546;42.674;23.284;2022-09-16T12:10:58;2.70;;;0.90;;
30818;SDS011;17546;42.674;23.284;2022-09-16T12:18:17;4.25;;;1.48;;
30818;SDS011;17546;42.674;23.284;2022-09-16T12:20:53;8.15;;;1.60;;
30818;SDS011;17546;42.674;23.284;2022-09-16T12:23:28;10.68;;;1.90;;
30818;SDS011;17546;42.674;23.284;2022-09-16T12:26:03;6.35;;;1.63;;
30818;SDS011;17546;42.674;23.284;2022-09-16T12:29:04;7.32;;;2.10;;
30818;SDS011;17546;42.674;23.284;2022-09-16T12:34:24;5.70;;;1.65;;
30818;SDS011;17546;42.674;23.284;2022-09-16T12:39:41;8.52;;;2.00;;
30818;SDS011;17546;42.674;23.284;2022-09-16T12:55:31;12.18;;;2.60;;
30818;SDS011;17546;42.674;23.284;2022-09-16T13:00:19;8.53;;;2.33;;
30818;SDS011;17546;42.674;23.284;2022-09-16T13:05:17;7.70;;;2.05;;
30818;SDS011;17546;42.674;23.284;2022-09-16T13:07:52;6.13;;;1.83;;
30818;SDS011;17546;42.674;23.284;2022-09-16T13:15:27;4.35;;;1.40;;
30818;SDS011;17546;42.674;23.284;2022-09-16T13:17:53;4.13;;;1.30;;
30818;SDS011;17546;42.674;23.284;2022-09-16T13:20:20;4.75;;;1.20;;
30818;SDS011;17546;42.674;23.284;2022-09-16T13:33:44;6.03;;;1.10;;
30818;SDS011;17546;42.674;23.284;2022-09-16T13:38:44;3.58;;;1.20;;
30818;SDS011;17546;42.674;23.284;2022-09-16T13:41:14;4.72;;;1.50;;
30818;SDS011;17546;42.674;23.284;2022-09-16T13:43:57;8.13;;;1.90;;
30818;SDS011;17546;42.674;23.284;2022-09-16T13:46:27;3.70;;;1.42;;
30818;SDS011;17546;42.674;23.284;2022-09-16T13:51:27;4.72;;;1.60;;
30818;SDS011;17546;42.674;23.284;2022-09-16T13:53:54;6.00;;;1.80;;
30818;SDS011;17546;42.674;23.284;2022-09-16T14:04:51;8.30;;;2.20;;
30818;SDS011;17546;42.674;23.284;2022-09-16T14:07:54;5.47;;;2.20;;
30818;SDS011;17546;42.674;23.284;2022-09-16T14:13:14;7.55;;;2.53;;
30818;SDS011;17546;42.674;23.284;2022-09-16T14:15:43;9.93;;;2.60;;
30818;SDS011;17546;42.674;23.284;2022-09-16T14:18:12;4.18;;;2.05;;
30818;SDS011;17546;42.674;23.284;2022-09-16T14:20:50;3.75;;;1.70;;
30818;SDS011;17546;42.674;23.284;2022-09-16T14:23:17;7.03;;;2.03;;
30818;SDS011;17546;42.674;23.284;2022-09-16T14:25:43;4.45;;;1.73;;
30818;SDS011;17546;42.674;23.284;2022-09-16T14:28:30;5.10;;;1.80;;
30818;SDS011;17546;42.674;23.284;2022-09-16T14:30:55;4.95;;;1.50;;
30818;SDS011;17546;42.674;23.284;2022-09-16T14:33:28;6.82;;;1.60;;
30818;SDS011;17546;42.674;23.284;2022-09-16T14:35:56;5.15;;;1.50;;
30818;SDS011;17546;42.674;23.284;2022-09-16T14:38:58;4.65;;;1.40;;
30818;SDS011;17546;42.674;23.284;2022-09-16T14:46:57;5.75;;;1.55;;
30818;SDS011;17546;42.674;23.284;2022-09-16T14:49:29;4.32;;;1.40;;
30818;SDS011;17546;42.674;23.284;2022-09-16T14:51:59;7.47;;;1.60;;
30818;SDS011;17546;42.674;23.284;2022-09-16T14:54:28;6.68;;;1.70;;
30818;SDS011;17546;42.674;23.284;2022-09-16T14:59:21;5.43;;;1.48;;
30818;SDS011;17546;42.674;23.284;2022-09-16T15:01:53;6.88;;;1.70;;
30818;SDS011;17546;42.674;23.284;2022-09-16T15:04:28;4.25;;;1.73;;
30818;SDS011;17546;42.674;23.284;2022-09-16T15:06:58;7.95;;;1.77;;
30818;SDS011;17546;42.674;23.284;2022-09-16T15:09:36;11.30;;;1.48;;
30818;SDS011;17546;42.674;23.284;2022-09-16T15:12:16;4.68;;;1.45;;
30818;SDS011;17546;42.674;23.284;2022-09-16T15:14:53;6.70;;;1.70;;
30818;SDS011;17546;42.674;23.284;2022-09-16T15:17:19;5.68;;;1.15;;
30818;SDS011;17546;42.674;23.284;2022-09-16T15:19:50;4.80;;;1.50;;
30818;SDS011;17546;42.674;23.284;2022-09-16T15:22:21;5.82;;;1.45;;
30818;SDS011;17546;42.674;23.284;2022-09-16T15:24:56;5.03;;;1.50;;
30818;SDS011;17546;42.674;23.284;2022-09-16T15:27:25;7.70;;;1.77;;
30818;SDS011;17546;42.674;23.284;2022-09-16T15:29:54;4.15;;;1.55;;
30818;SDS011;17546;42.674;23.284;2022-09-16T15:32:24;6.47;;;1.75;;
30818;SDS011;17546;42.674;23.284;2022-09-16T15:37:51;9.93;;;1.85;;
30818;SDS011;17546;42.674;23.284;2022-09-16T15:40:20;6.25;;;2.00;;
30818;SDS011;17546;42.674;23.284;2022-09-16T15:45:41;7.65;;;2.10;;
30818;SDS011;17546;42.674;23.284;2022-09-16T15:50:45;11.63;;;2.65;;
30818;SDS011;17546;42.674;23.284;2022-09-16T15:53:17;7.15;;;2.45;;
30818;SDS011;17546;42.674;23.284;2022-09-16T15:55:57;12.23;;;2.00;;
30818;SDS011;17546;42.674;23.284;2022-09-16T16:06:08;3.28;;;1.50;;
30818;SDS011;17546;42.674;23.284;2022-09-16T16:08:36;5.63;;;1.83;;
30818;SDS011;17546;42.674;23.284;2022-09-16T16:11:19;4.30;;;2.00;;
30818;SDS011;17546;42.674;23.284;2022-09-16T16:13:46;10.00;;;2.40;;
30818;SDS011;17546;42.674;23.284;2022-09-16T16:16:14;8.80;;;2.30;;
30818;SDS011;17546;42.674;23.284;2022-09-16T16:18:41;7.72;;;2.25;;
30818;SDS011;17546;42.674;23.284;2022-09-16T16:21:12;12.13;;;2.80;;
30818;SDS011;17546;42.674;23.284;2022-09-16T16:23:41;7.50;;;2.20;;
30818;SDS011;17546;42.674;23.284;2022-09-16T16:26:07;6.18;;;2.25;;
30818;SDS011;17546;42.674;23.284;2022-09-16T16:28:34;5.72;;;2.33;;
30818;SDS011;17546;42.674;23.284;2022-09-16T16:31:13;5.95;;;2.00;;
30818;SDS011;17546;42.674;23.284;2022-09-16T16:33:44;8.13;;;1.95;;
30818;SDS011;17546;42.674;23.284;2022-09-16T16:36:14;6.28;;;2.20;;
30818;SDS011;17546;42.674;23.284;2022-09-16T16:38:41;5.20;;;2.70;;
30818;SDS011;17546;42.674;23.284;2022-09-16T16:41:07;9.02;;;2.10;;
30818;SDS011;17546;42.674;23.284;2022-09-16T16:43:34;6.45;;;1.90;;
30818;SDS011;17546;42.674;23.284;2022-09-16T16:46:00;7.43;;;2.47;;
30818;SDS011;17546;42.674;23.284;2022-09-16T16:48:25;6.20;;;2.38;;
30818;SDS011;17546;42.674;23.284;2022-09-16T16:53:26;8.10;;;2.20;;
30818;SDS011;17546;42.674;23.284;2022-09-16T16:55:52;7.53;;;2.20;;
30818;SDS011;17546;42.674;23.284;2022-09-16T16:58:18;6.47;;;2.25;;
30818;SDS011;17546;42.674;23.284;2022-09-16T17:00:43;6.57;;;2.50;;
30818;SDS011;17546;42.674;23.284;2022-09-16T17:03:09;12.23;;;2.72;;
30818;SDS011;17546;42.674;23.284;2022-09-16T17:05:35;4.53;;;2.60;;
30818;SDS011;17546;42.674;23.284;2022-09-16T17:08:00;9.00;;;2.78;;
30818;SDS011;17546;42.674;23.284;2022-09-16T17:10:26;10.88;;;2.97;;
30818;SDS011;17546;42.674;23.284;2022-09-16T17:12:51;11.43;;;3.20;;
30818;SDS011;17546;42.674;23.284;2022-09-16T17:15:17;9.32;;;3.53;;
30818;SDS011;17546;42.674;23.284;2022-09-16T17:17:42;8.80;;;4.30;;
30818;SDS011;17546;42.674;23.284;2022-09-16T17:20:08;13.65;;;3.85;;
30818;SDS011;17546;42.674;23.284;2022-09-16T17:22:33;10.95;;;3.50;;
30818;SDS011;17546;42.674;23.284;2022-09-16T17:24:59;9.85;;;3.90;;
30818;SDS011;17546;42.674;23.284;2022-09-16T17:27:24;9.65;;;4.38;;
30818;SDS011;17546;42.674;23.284;2022-09-16T17:29:51;13.23;;;4.65;;
30818;SDS011;17546;42.674;23.284;2022-09-16T17:32:17;16.17;;;4.63;;
30818;SDS011;17546;42.674;23.284;2022-09-16T17:34:43;15.98;;;4.38;;
30818;SDS011;17546;42.674;23.284;2022-09-16T17:37:08;15.35;;;5.60;;
30818;SDS011;17546;42.674;23.284;2022-09-16T17:39:36;13.20;;;4.57;;
30818;SDS011;17546;42.674;23.284;2022-09-16T17:42:02;15.60;;;5.32;;
30818;SDS011;17546;42.674;23.284;2022-09-16T17:44:27;13.32;;;5.22;;
30818;SDS011;17546;42.674;23.284;2022-09-16T17:46:53;12.60;;;4.85;;
30818;SDS011;17546;42.674;23.284;2022-09-16T17:49:19;11.60;;;5.40;;
30818;SDS011;17546;42.674;23.284;2022-09-16T17:51:46;11.23;;;5.40;;
30818;SDS011;17546;42.674;23.284;2022-09-16T17:54:12;20.55;;;5.50;;
30818;SDS011;17546;42.674;23.284;2022-09-16T17:56:38;14.02;;;5.15;;
30818;SDS011;17546;42.674;23.284;2022-09-16T17:59:06;8.52;;;4.25;;
30818;SDS011;17546;42.674;23.284;2022-09-16T18:01:32;14.05;;;4.47;;
30818;SDS011;17546;42.674;23.284;2022-09-16T18:03:59;11.38;;;4.30;;
30818;SDS011;17546;42.674;23.284;2022-09-16T18:06:29;8.85;;;3.75;;
30818;SDS011;17546;42.674;23.284;2022-09-16T18:09:02;13.45;;;4.05;;
30818;SDS011;17546;42.674;23.284;2022-09-16T18:11:31;11.18;;;4.07;;
30818;SDS011;17546;42.674;23.284;2022-09-16T18:13:57;12.38;;;3.55;;
30818;SDS011;17546;42.674;23.284;2022-09-16T18:16:25;14.32;;;4.30;;
30818;SDS011;17546;42.674;23.284;2022-09-16T18:18:52;8.00;;;3.47;;
30818;SDS011;17546;42.674;23.284;2022-09-16T18:21:37;10.75;;;3.85;;
30818;SDS011;17546;42.674;23.284;2022-09-16T18:24:03;14.52;;;4.65;;
30818;SDS011;17546;42.674;23.284;2022-09-16T18:26:31;10.68;;;3.90;;
30818;SDS011;17546;42.674;23.284;2022-09-16T18:28:57;11.80;;;4.25;;
30818;SDS011;17546;42.674;23.284;2022-09-16T18:31:25;12.10;;;3.92;;
30818;SDS011;17546;42.674;23.284;2022-09-16T18:33:51;23.08;;;4.93;;
30818;SDS011;17546;42.674;23.284;2022-09-16T18:36:17;13.07;;;4.05;;
30818;SDS011;17546;42.674;23.284;2022-09-16T18:38:43;7.28;;;4.15;;
30818;SDS011;17546;42.674;23.284;2022-09-16T18:41:10;10.55;;;3.90;;
30818;SDS011;17546;42.674;23.284;2022-09-16T18:43:37;9.20;;;4.78;;
30818;SDS011;17546;42.674;23.284;2022-09-16T18:48:39;16.33;;;4.20;;
30818;SDS011;17546;42.674;23.284;2022-09-16T18:51:13;11.38;;;3.70;;
30818;SDS011;17546;42.674;23.284;2022-09-16T18:53:40;13.25;;;4.07;;
30818;SDS011;17546;42.674;23.284;2022-09-16T18:56:09;11.25;;;4.07;;